Time;durP1;ratioP1;P1;durP2;ratioP2;P2;SDS_P1;SDS_P2;PMS_P1;PMS_P2;Temp;Humidity;BMP_temperature;BMP_pressure;BME280_temperature;BME280_humidity;BME280_pressure;Samples;Min_cycle;Max_cycle;Signal;HPM_P1;HPM_P2
2023/06/06 00:00:06;;;;;;;1.50;1.40;;;23.30;73.70;;;;;;5095148;28;20445;-84
2023/06/06 00:02:32;;;;;;;1.93;1.83;;;23.20;73.60;;;;;;5095020;28;20445;-84
2023/06/06 00:05:00;;;;;;;1.60;1.50;;;23.20;73.60;;;;;;5093891;28;20498;-84
2023/06/06 00:07:28;;;;;;;1.77;1.67;;;23.20;73.70;;;;;;5094967;28;20516;-84
2023/06/06 00:09:56;;;;;;;2.00;1.80;;;23.20;73.70;;;;;;5095111;28;20440;-84
2023/06/06 00:12:24;;;;;;;1.90;1.80;;;23.20;73.80;;;;;;5094768;28;20496;-86
2023/06/06 00:14:51;;;;;;;2.10;1.90;;;23.20;73.70;;;;;;5094596;28;20809;-86
2023/06/06 00:17:18;;;;;;;1.63;1.53;;;23.20;73.70;;;;;;5094663;28;20522;-85
2023/06/06 00:19:45;;;;;;;1.70;1.60;;;23.20;73.70;;;;;;5094686;28;20507;-85
2023/06/06 00:22:12;;;;;;;1.70;1.53;;;23.20;73.80;;;;;;5094599;28;20800;-85
2023/06/06 00:24:38;;;;;;;2.63;2.00;;;23.20;73.80;;;;;;5094080;28;20555;-85
2023/06/06 00:27:07;;;;;;;1.83;1.73;;;23.20;73.80;;;;;;5094440;28;20442;-85
2023/06/06 00:29:34;;;;;;;1.77;1.67;;;23.20;73.90;;;;;;5094454;28;20435;-85
2023/06/06 00:32:01;;;;;;;2.00;1.80;;;23.10;73.70;;;;;;5094200;28;20450;-84
2023/06/06 00:34:28;;;;;;;1.40;1.30;;;23.20;73.80;;;;;;5094302;28;20522;-85
2023/06/06 00:36:54;;;;;;;1.80;1.50;;;23.20;73.80;;;;;;5094242;28;20954;-84
2023/06/06 00:39:21;;;;;;;1.70;1.60;;;23.20;73.90;;;;;;5094511;28;20453;-84
2023/06/06 00:41:48;;;;;;;1.40;1.30;;;23.10;73.70;;;;;;5094201;28;20806;-85
2023/06/06 00:44:16;;;;;;;1.50;1.40;;;23.10;73.80;;;;;;5094106;28;20465;-85
2023/06/06 00:46:44;;;;;;;1.47;1.37;;;23.20;73.90;;;;;;5093936;28;20455;-85
2023/06/06 00:49:14;;;;;;;1.50;1.40;;;23.20;73.90;;;;;;5093972;28;20538;-85
2023/06/06 00:51:43;;;;;;;2.17;1.90;;;23.20;73.80;;;;;;5093870;28;20807;-85
2023/06/06 00:54:12;;;;;;;1.70;1.60;;;23.20;73.80;;;;;;5092814;28;20492;-83
2023/06/06 00:56:40;;;;;;;1.63;1.53;;;23.20;73.90;;;;;;5093802;28;20491;-85
2023/06/06 00:59:08;;;;;;;1.70;1.60;;;23.10;73.70;;;;;;5093772;28;20449;-85
2023/06/06 01:01:38;;;;;;;2.13;1.57;;;23.20;73.80;;;;;;5093952;28;20448;-85
2023/06/06 01:04:08;;;;;;;1.90;1.80;;;23.20;73.90;;;;;;5093692;28;20542;-84
2023/06/06 01:06:37;;;;;;;1.73;1.60;;;23.20;73.90;;;;;;5093872;28;20463;-85
2023/06/06 01:09:06;;;;;;;2.17;2.03;;;23.10;73.70;;;;;;5093695;28;20449;-85
2023/06/06 01:11:41;;;;;;;2.10;2.00;;;23.20;73.90;;;;;;5094014;28;20938;-84
2023/06/06 01:14:16;;;;;;;2.03;1.90;;;23.20;73.90;;;;;;5093645;28;20824;-85
2023/06/06 01:16:49;;;;;;;1.70;1.60;;;23.20;73.80;;;;;;5093706;28;20544;-84
2023/06/06 01:19:20;;;;;;;1.83;1.73;;;23.20;73.90;;;;;;5093754;28;20496;-84
2023/06/06 01:21:51;;;;;;;1.43;1.33;;;23.10;73.80;;;;;;5093479;28;20490;-84
2023/06/06 01:24:20;;;;;;;1.40;1.20;;;23.20;73.80;;;;;;5093086;28;20919;-85
2023/06/06 01:26:47;;;;;;;1.80;1.70;;;23.20;73.90;;;;;;5093743;28;20443;-84
2023/06/06 01:29:14;;;;;;;1.80;1.70;;;23.20;73.90;;;;;;5093401;28;20439;-84
2023/06/06 01:31:43;;;;;;;1.87;1.77;;;23.20;73.90;;;;;;5093420;28;20441;-83
2023/06/06 01:34:16;;;;;;;2.00;1.87;;;23.10;73.80;;;;;;5093348;28;20985;-84
2023/06/06 01:36:56;;;;;;;1.87;1.77;;;23.20;74.00;;;;;;5093189;28;20443;-86
2023/06/06 01:39:24;;;;;;;2.50;1.90;;;23.20;74.80;;;;;;5093440;28;20444;-84
2023/06/06 01:41:55;;;;;;;1.97;1.87;;;23.20;74.00;;;;;;5093209;28;20490;-83
2023/06/06 01:44:23;;;;;;;1.80;1.70;;;23.20;73.90;;;;;;5093378;28;20440;-83
2023/06/06 01:46:50;;;;;;;2.53;2.33;;;23.20;74.00;;;;;;5073139;28;20453;-82
2023/06/06 01:49:18;;;;;;;1.57;1.47;;;23.10;73.80;;;;;;5073796;28;20928;-84
2023/06/06 01:51:45;;;;;;;2.13;1.93;;;23.20;73.90;;;;;;5087410;28;20439;-83
2023/06/06 01:54:13;;;;;;;1.70;1.60;;;23.10;73.80;;;;;;5093201;28;20487;-84
2023/06/06 01:56:41;;;;;;;1.90;1.80;;;23.10;73.90;;;;;;5093188;28;20450;-84
2023/06/06 01:59:08;;;;;;;1.90;1.80;;;23.10;73.80;;;;;;5092977;28;20526;-84
2023/06/06 02:01:35;;;;;;;1.60;1.50;;;23.10;73.80;;;;;;5093147;28;20529;-85
2023/06/06 02:04:01;;;;;;;1.90;1.80;;;23.20;74.00;;;;;;5093225;28;20459;-83
2023/06/06 02:06:29;;;;;;;1.70;1.60;;;23.10;73.80;;;;;;5097424;28;20446;-83
2023/06/06 02:08:56;;;;;;;1.90;1.80;;;23.10;73.90;;;;;;5096994;28;20476;-83
2023/06/06 02:11:25;;;;;;;1.70;1.60;;;23.10;73.80;;;;;;5097305;28;20473;-84
2023/06/06 02:13:51;;;;;;;2.00;1.90;;;23.10;73.80;;;;;;5096953;28;20575;-83
2023/06/06 02:16:19;;;;;;;1.77;1.67;;;23.10;73.80;;;;;;5097022;28;20440;-84
2023/06/06 02:18:46;;;;;;;1.70;1.60;;;23.10;73.90;;;;;;5096975;28;20441;-84
2023/06/06 02:21:13;;;;;;;1.50;1.40;;;23.10;73.80;;;;;;5097358;28;20464;-83
2023/06/06 02:23:40;;;;;;;1.67;1.50;;;23.10;73.80;;;;;;5096406;28;20462;-85
2023/06/06 02:26:07;;;;;;;1.43;1.33;;;23.10;73.80;;;;;;5096667;28;20437;-84
2023/06/06 02:28:35;;;;;;;1.50;1.40;;;23.10;73.80;;;;;;5096667;28;20441;-85
2023/06/06 02:31:03;;;;;;;1.40;1.30;;;23.10;73.80;;;;;;5096881;28;20487;-84
2023/06/06 02:33:30;;;;;;;1.50;1.40;;;23.10;73.80;;;;;;5096855;28;20475;-84
2023/06/06 02:35:57;;;;;;;1.70;1.60;;;23.10;74.70;;;;;;5096776;28;20470;-84
2023/06/06 02:38:23;;;;;;;1.73;1.50;;;23.10;73.80;;;;;;5096698;28;20435;-84
2023/06/06 02:40:50;;;;;;;1.40;1.30;;;23.10;73.80;;;;;;5096214;28;20440;-84
2023/06/06 02:43:17;;;;;;;1.67;1.57;;;23.10;73.80;;;;;;5096401;28;20965;-85
2023/06/06 02:45:46;;;;;;;1.50;1.40;;;23.10;73.80;;;;;;5096334;28;20472;-83
2023/06/06 02:48:13;;;;;;;1.93;1.73;;;23.10;73.80;;;;;;5076082;28;20904;-83
2023/06/06 02:50:40;;;;;;;1.70;1.60;;;23.10;73.80;;;;;;5076023;28;20449;-85
2023/06/06 02:53:09;;;;;;;1.77;1.67;;;23.10;73.80;;;;;;5075662;28;20547;-84
2023/06/06 02:55:36;;;;;;;1.67;1.57;;;23.10;73.80;;;;;;5076121;28;20447;-84
2023/06/06 02:58:02;;;;;;;1.40;1.30;;;23.10;73.80;;;;;;5075991;28;20480;-85
2023/06/06 03:00:29;;;;;;;1.60;1.50;;;23.10;73.70;;;;;;5075956;28;20479;-83
2023/06/06 03:02:58;;;;;;;1.57;1.47;;;23.10;73.70;;;;;;5075715;28;20469;-85
2023/06/06 03:05:29;;;;;;;1.60;1.50;;;23.10;73.80;;;;;;5075715;28;20446;-85
2023/06/06 03:07:56;;;;;;;1.40;1.30;;;23.10;73.80;;;;;;5076027;28;20456;-84
2023/06/06 03:10:23;;;;;;;1.60;1.50;;;23.10;73.70;;;;;;5075570;28;20528;-84
2023/06/06 03:12:50;;;;;;;1.90;1.80;;;23.10;73.70;;;;;;5075648;28;20523;-83
2023/06/06 03:15:16;;;;;;;1.57;1.43;;;23.10;73.70;;;;;;5075601;28;20484;-83
2023/06/06 03:17:43;;;;;;;1.80;1.70;;;23.10;73.70;;;;;;5074894;28;20447;-83
2023/06/06 03:20:13;;;;;;;1.47;1.37;;;23.10;73.70;;;;;;5075507;28;20437;-84
2023/06/06 03:22:40;;;;;;;1.60;1.50;;;23.10;73.70;;;;;;5075426;28;20457;-83
2023/06/06 03:25:08;;;;;;;2.27;1.70;;;23.00;73.50;;;;;;5075513;28;20492;-84
2023/06/06 03:27:35;;;;;;;1.63;1.53;;;23.10;73.60;;;;;;5075344;28;20432;-85
2023/06/06 03:30:06;;;;;;;1.70;1.60;;;23.10;73.70;;;;;;5077070;28;21037;-85
2023/06/06 03:32:33;;;;;;;1.60;1.47;;;23.10;73.70;;;;;;5095571;28;20447;-83
2023/06/06 03:35:00;;;;;;;1.70;1.60;;;23.10;73.60;;;;;;5095540;28;20519;-84
2023/06/06 03:37:28;;;;;;;1.80;1.70;;;23.10;73.60;;;;;;5095328;28;20442;-84
2023/06/06 03:39:55;;;;;;;1.70;1.60;;;23.10;73.60;;;;;;5095227;28;20436;-83
2023/06/06 03:42:22;;;;;;;1.60;1.50;;;23.10;73.60;;;;;;5094874;28;21045;-84
2023/06/06 03:44:48;;;;;;;1.93;1.60;;;23.10;73.60;;;;;;5095189;28;20929;-84
2023/06/06 03:47:15;;;;;;;1.67;1.57;;;23.10;73.60;;;;;;5095208;28;20471;-84
2023/06/06 03:49:43;;;;;;;1.93;1.70;;;23.00;73.40;;;;;;5095207;28;20469;-84
2023/06/06 03:52:11;;;;;;;1.50;1.40;;;23.00;74.30;;;;;;5095158;28;20524;-83
2023/06/06 03:54:39;;;;;;;1.63;1.53;;;23.10;73.50;;;;;;5095127;28;20490;-83
2023/06/06 03:57:10;;;;;;;1.60;1.50;;;23.10;73.60;;;;;;5094973;28;20443;-84
2023/06/06 03:59:37;;;;;;;1.83;1.63;;;23.00;73.50;;;;;;5094204;28;20478;-82
2023/06/06 04:02:04;;;;;;;1.87;1.60;;;23.00;73.40;;;;;;5094715;28;20477;-82
2023/06/06 04:04:32;;;;;;;1.53;1.43;;;23.10;73.50;;;;;;5094281;28;20437;-81
2023/06/06 04:06:59;;;;;;;1.47;1.33;;;23.10;73.50;;;;;;5090564;28;20515;-84
2023/06/06 04:09:26;;;;;;;1.53;1.43;;;23.10;73.50;;;;;;5093712;28;20459;-85
2023/06/06 04:11:54;;;;;;;1.53;1.43;;;23.00;73.40;;;;;;5094388;28;20483;-83
2023/06/06 04:14:21;;;;;;;1.87;1.70;;;23.00;73.40;;;;;;5094754;28;20488;-83
2023/06/06 04:16:48;;;;;;;2.10;2.00;;;23.10;73.40;;;;;;5094567;28;20499;-83
2023/06/06 04:19:15;;;;;;;1.40;1.30;;;23.00;73.40;;;;;;5094319;28;20440;-84
2023/06/06 04:21:42;;;;;;;1.50;1.40;;;23.00;73.40;;;;;;5094459;28;20809;-82
2023/06/06 04:24:10;;;;;;;1.90;1.80;;;23.00;73.50;;;;;;5094107;28;20512;-91
2023/06/06 04:26:40;;;;;;;1.90;1.77;;;23.00;73.50;;;;;;5094858;28;20481;-92
2023/06/06 04:29:12;;;;;;;1.87;1.67;;;23.00;73.50;;;;;;5094188;28;20449;-87
2023/06/06 05:49:03;;;;;;;7.33;6.20;;;21.20;77.50;;;;;;5062295;28;20478;-84
2023/06/06 05:51:31;;;;;;;13.37;4.93;;;21.30;76.60;;;;;;5052326;28;20445;-83
2023/06/06 05:53:58;;;;;;;5.57;4.10;;;21.30;75.70;;;;;;5052291;28;20491;-86
2023/06/06 05:56:26;;;;;;;6.90;4.03;;;21.40;74.90;;;;;;5052511;28;20462;-83
2023/06/06 05:58:53;;;;;;;7.03;3.70;;;21.50;74.10;;;;;;5052536;28;20441;-84
2023/06/06 06:01:24;;;;;;;6.13;3.17;;;21.60;73.20;;;;;;5052497;28;20513;-85
2023/06/06 06:03:52;;;;;;;6.33;3.90;;;21.70;72.60;;;;;;5051944;28;20860;-82
2023/06/06 06:06:19;;;;;;;3.43;3.03;;;21.70;71.80;;;;;;5051343;28;20492;-83
2023/06/06 06:08:50;;;;;;;4.30;3.37;;;21.80;71.40;;;;;;5050849;28;20439;-83
2023/06/06 06:12:00;;;;;;;2.80;2.50;;;21.90;71.30;;;;;;5050809;28;20448;-84
2023/06/06 06:14:27;;;;;;;3.00;2.70;;;22.00;70.80;;;;;;5050828;28;20491;-84
2023/06/06 06:16:54;;;;;;;3.30;3.00;;;22.00;70.90;;;;;;5051134;28;20544;-84
2023/06/06 06:19:20;;;;;;;3.37;3.07;;;22.10;70.50;;;;;;5052483;28;20445;-85
2023/06/06 06:21:49;;;;;;;5.47;3.43;;;22.10;70.50;;;;;;5052634;28;20452;-83
2023/06/06 06:24:17;;;;;;;3.63;2.93;;;22.20;70.40;;;;;;5052652;28;20445;-84
2023/06/06 06:26:43;;;;;;;9.00;3.10;;;22.20;70.20;;;;;;5052840;28;20804;-83
2023/06/06 06:29:10;;;;;;;3.00;2.70;;;22.20;70.00;;;;;;5052830;28;20445;-83
2023/06/06 06:31:37;;;;;;;3.90;3.00;;;22.20;69.80;;;;;;5053016;28;20806;-84
2023/06/06 06:34:04;;;;;;;2.80;2.60;;;22.20;69.70;;;;;;5052703;28;20476;-84
2023/06/06 06:36:30;;;;;;;4.53;2.80;;;22.50;69.70;;;;;;5051179;28;20465;-83
2023/06/06 06:38:57;;;;;;;4.20;2.90;;;22.30;69.10;;;;;;5052463;28;20559;-83
2023/06/06 06:41:26;;;;;;;2.83;2.63;;;22.30;68.90;;;;;;5052786;28;20446;-85
2023/06/06 06:43:53;;;;;;;5.03;3.10;;;22.50;69.50;;;;;;5052968;28;20820;-85
2023/06/06 06:46:20;;;;;;;4.03;2.87;;;22.30;68.90;;;;;;5052810;28;20800;-85
2023/06/06 06:48:50;;;;;;;3.60;2.70;;;22.40;69.00;;;;;;5052617;28;20444;-85
2023/06/06 06:51:19;;;;;;;4.07;2.93;;;22.40;68.90;;;;;;5092946;28;20716;-84
2023/06/06 06:53:46;;;;;;;3.23;2.87;;;22.40;69.00;;;;;;5096437;28;20494;-89
2023/06/06 06:56:15;;;;;;;2.70;2.20;;;22.40;69.00;;;;;;5078492;28;20802;-84
2023/06/06 06:58:44;;;;;;;4.70;3.00;;;22.40;69.00;;;;;;5096189;28;20811;-84
2023/06/06 07:01:11;;;;;;;4.50;2.63;;;22.50;68.50;;;;;;5096163;28;20447;-84
2023/06/06 07:03:40;;;;;;;3.10;2.63;;;22.40;68.50;;;;;;5096204;28;20447;-84
2023/06/06 07:06:07;;;;;;;5.10;2.83;;;22.50;68.40;;;;;;5096028;28;20522;-87
2023/06/06 07:08:34;;;;;;;3.17;2.87;;;22.50;68.00;;;;;;5095889;28;20446;-84
2023/06/06 07:11:02;;;;;;;3.10;2.57;;;22.50;68.20;;;;;;5095809;28;20472;-84
2023/06/06 07:13:31;;;;;;;2.30;2.10;;;22.50;67.90;;;;;;5096105;28;20472;-84
2023/06/06 07:15:59;;;;;;;3.73;2.43;;;22.50;68.10;;;;;;5095783;28;20495;-86
2023/06/06 07:18:26;;;;;;;3.07;2.77;;;22.50;68.10;;;;;;5095761;28;20439;-84
2023/06/06 07:20:52;;;;;;;2.50;2.27;;;22.50;68.20;;;;;;5095958;28;20436;-85
2023/06/06 07:23:19;;;;;;;3.10;2.47;;;22.70;68.50;;;;;;5095565;28;20456;-84
2023/06/06 07:25:46;;;;;;;2.77;2.57;;;22.60;68.20;;;;;;5095894;28;20540;-84
2023/06/06 07:28:14;;;;;;;3.10;2.57;;;22.50;68.00;;;;;;5095659;28;20438;-84
2023/06/06 07:30:41;;;;;;;2.33;2.13;;;22.60;68.20;;;;;;5095626;28;20443;-84
2023/06/06 07:33:09;;;;;;;3.90;1.93;;;22.60;68.10;;;;;;5095698;28;20448;-85
2023/06/06 07:35:36;;;;;;;3.90;2.80;;;22.60;68.20;;;;;;5095306;28;20483;-87
2023/06/06 07:38:03;;;;;;;2.90;2.60;;;22.60;68.20;;;;;;5095319;28;20476;-84
2023/06/06 07:40:30;;;;;;;2.90;2.30;;;22.80;68.50;;;;;;5095494;28;20522;-86
2023/06/06 07:42:57;;;;;;;2.73;1.97;;;22.60;68.20;;;;;;5095037;28;20436;-84
2023/06/06 07:45:24;;;;;;;3.60;2.20;;;22.60;68.60;;;;;;5095259;28;20477;-84
2023/06/06 07:47:51;;;;;;;2.40;2.20;;;22.60;68.60;;;;;;5095247;28;20435;-84
2023/06/06 07:50:19;;;;;;;2.60;2.40;;;22.60;68.30;;;;;;5095032;28;21015;-87
2023/06/06 07:52:46;;;;;;;3.73;2.50;;;22.70;68.40;;;;;;5094920;28;20953;-84
2023/06/06 07:55:13;;;;;;;2.60;2.40;;;22.60;68.40;;;;;;5095013;28;20535;-85
2023/06/06 07:57:45;;;;;;;2.90;2.40;;;22.70;68.30;;;;;;5094967;28;20446;-85
2023/06/06 08:00:13;;;;;;;2.77;2.30;;;22.70;68.30;;;;;;5095198;28;20441;-85
2023/06/06 08:02:40;;;;;;;2.60;2.40;;;22.70;68.20;;;;;;5094597;28;20442;-85
2023/06/06 08:05:07;;;;;;;2.10;2.00;;;22.70;68.20;;;;;;5094829;28;20445;-87
2023/06/06 08:07:36;;;;;;;2.73;2.43;;;22.70;68.20;;;;;;5094800;28;20443;-87
2023/06/06 08:10:03;;;;;;;2.23;2.03;;;22.70;68.20;;;;;;5094801;28;20462;-85
2023/06/06 08:12:30;;;;;;;3.77;2.30;;;22.70;68.10;;;;;;5094819;28;20440;-84
2023/06/06 08:14:56;;;;;;;2.37;2.17;;;22.70;68.20;;;;;;5094486;28;20997;-84
2023/06/06 08:17:23;;;;;;;2.40;2.20;;;22.90;68.40;;;;;;5094791;28;20439;-85
2023/06/06 08:19:50;;;;;;;1.73;1.63;;;22.70;68.00;;;;;;5094673;28;20443;-84
2023/06/06 08:22:17;;;;;;;2.33;2.13;;;22.80;68.40;;;;;;5094727;28;20467;-84
2023/06/06 08:24:45;;;;;;;2.17;1.97;;;22.80;68.50;;;;;;5094872;28;20454;-86
2023/06/06 08:27:12;;;;;;;2.90;2.60;;;22.80;68.50;;;;;;5094528;28;20435;-85
2023/06/06 08:29:39;;;;;;;2.43;2.20;;;22.80;68.50;;;;;;5094596;28;20441;-85
2023/06/06 08:32:08;;;;;;;1.93;1.60;;;22.80;68.30;;;;;;5094453;28;20444;-84
2023/06/06 08:34:35;;;;;;;3.53;2.37;;;22.80;68.50;;;;;;5094278;28;20524;-87
2023/06/06 08:37:02;;;;;;;3.00;2.10;;;22.80;68.50;;;;;;5094576;28;20439;-85
2023/06/06 08:39:29;;;;;;;2.07;1.90;;;22.80;68.60;;;;;;5094646;28;20435;-85
2023/06/06 08:41:57;;;;;;;3.03;2.10;;;22.80;68.60;;;;;;5094112;28;20956;-85
2023/06/06 08:44:24;;;;;;;2.20;2.00;;;22.80;68.50;;;;;;5093520;28;20423;-85
2023/06/06 08:46:52;;;;;;;2.10;2.00;;;22.80;68.40;;;;;;5094141;28;20436;-84
2023/06/06 08:49:20;;;;;;;2.10;2.00;;;22.80;68.60;;;;;;5093786;28;20475;-84
2023/06/06 08:51:49;;;;;;;2.33;1.80;;;22.80;68.50;;;;;;5094054;28;20444;-87
2023/06/06 08:54:16;;;;;;;3.30;2.33;;;22.80;68.30;;;;;;5093944;28;20473;-85
2023/06/06 08:56:44;;;;;;;2.33;2.00;;;22.80;68.30;;;;;;5093838;28;20483;-85
2023/06/06 08:59:12;;;;;;;2.13;2.00;;;22.90;68.60;;;;;;5093911;28;20786;-87
2023/06/06 09:01:39;;;;;;;2.13;1.93;;;22.90;68.60;;;;;;5093939;28;20462;-87
2023/06/06 09:04:07;;;;;;;2.20;2.00;;;22.90;68.80;;;;;;5093688;28;20455;-88
2023/06/06 09:06:38;;;;;;;2.30;2.10;;;23.10;69.00;;;;;;5093715;28;20436;-86
2023/06/06 09:09:07;;;;;;;2.17;1.97;;;22.90;68.50;;;;;;5093580;28;20507;-86
2023/06/06 09:11:34;;;;;;;2.53;2.33;;;22.90;68.60;;;;;;5094023;28;20949;-87
2023/06/06 09:14:01;;;;;;;2.30;2.10;;;22.90;68.70;;;;;;5092788;28;20801;-85
2023/06/06 09:16:29;;;;;;;2.20;2.00;;;22.90;68.70;;;;;;5093522;28;20836;-88
2023/06/06 09:18:57;;;;;;;1.93;1.83;;;22.90;68.80;;;;;;5093292;28;20441;-85
2023/06/06 09:21:29;;;;;;;1.93;1.70;;;22.90;68.80;;;;;;5093722;28;20439;-87
2023/06/06 09:23:55;;;;;;;2.27;1.80;;;23.00;68.90;;;;;;5093321;28;20463;-88
2023/06/06 09:26:22;;;;;;;1.90;1.77;;;22.90;68.80;;;;;;5093973;28;20439;-85
2023/06/06 09:28:49;;;;;;;1.80;1.50;;;23.00;68.80;;;;;;5093611;28;20808;-85
2023/06/06 09:31:27;;;;;;;1.63;1.53;;;22.90;68.70;;;;;;5093261;28;20930;-86
2023/06/06 09:33:56;;;;;;;2.10;1.90;;;23.00;68.80;;;;;;5093479;28;20504;-84
2023/06/06 09:36:24;;;;;;;2.30;2.10;;;23.00;68.80;;;;;;5093296;28;20486;-84
2023/06/06 09:38:52;;;;;;;2.10;1.90;;;23.00;68.70;;;;;;5093417;28;20448;-84
2023/06/06 09:41:20;;;;;;;1.83;1.70;;;23.00;68.60;;;;;;5093453;28;20513;-84
2023/06/06 09:43:47;;;;;;;1.93;1.73;;;23.00;68.70;;;;;;5093284;28;20526;-84
2023/06/06 09:46:16;;;;;;;1.90;1.80;;;23.00;68.70;;;;;;5093414;28;20440;-85
2023/06/06 09:48:44;;;;;;;2.30;2.10;;;23.00;68.80;;;;;;5093251;28;20462;-85
2023/06/06 09:51:12;;;;;;;2.13;1.80;;;23.00;68.70;;;;;;5093134;28;20859;-87
2023/06/06 09:53:40;;;;;;;2.20;2.00;;;23.00;69.00;;;;;;5093027;28;20532;-84
2023/06/06 09:56:08;;;;;;;1.70;1.60;;;23.10;68.90;;;;;;5093196;28;20478;-87
2023/06/06 09:58:36;;;;;;;2.10;2.00;;;23.00;69.00;;;;;;5092980;28;20444;-84
2023/06/06 10:01:06;;;;;;;1.67;1.57;;;23.10;69.00;;;;;;5093089;28;20431;-86
2023/06/06 10:03:37;;;;;;;1.83;1.57;;;23.10;69.00;;;;;;5093176;28;20443;-86
2023/06/06 10:06:05;;;;;;;2.50;1.83;;;23.20;69.10;;;;;;5093435;28;20448;-85
2023/06/06 10:08:35;;;;;;;2.00;1.60;;;23.10;68.90;;;;;;5093261;28;20472;-84
2023/06/06 10:11:02;;;;;;;2.17;1.97;;;23.30;69.10;;;;;;5093723;28;20847;-85
2023/06/06 10:13:30;;;;;;;1.77;1.67;;;23.10;68.80;;;;;;5093195;28;20467;-84
2023/06/06 10:15:59;;;;;;;1.80;1.70;;;23.10;68.90;;;;;;5093195;28;20814;-85
2023/06/06 10:18:27;;;;;;;2.00;1.90;;;23.10;68.90;;;;;;5093256;28;20494;-88
2023/06/06 10:20:55;;;;;;;1.70;1.60;;;23.10;68.80;;;;;;5093157;28;20441;-84
2023/06/06 10:23:22;;;;;;;2.20;2.00;;;23.10;68.90;;;;;;5092914;28;20801;-85
2023/06/06 10:25:51;;;;;;;1.83;1.73;;;23.20;68.90;;;;;;5094689;28;20448;-83
2023/06/06 10:28:23;;;;;;;1.60;1.50;;;23.10;69.00;;;;;;5097087;28;20451;-86
2023/06/06 10:30:57;;;;;;;2.40;2.20;;;23.20;69.10;;;;;;5096771;28;20454;-84
2023/06/06 10:33:32;;;;;;;2.20;2.00;;;23.20;69.10;;;;;;5096861;28;20423;-85
2023/06/06 10:36:02;;;;;;;2.30;2.10;;;23.20;69.10;;;;;;5096951;28;20503;-87
2023/06/06 10:38:29;;;;;;;1.90;1.70;;;23.20;69.10;;;;;;5096483;28;20957;-85
2023/06/06 10:40:59;;;;;;;2.00;1.90;;;23.20;69.20;;;;;;5096650;28;20504;-85
2023/06/06 10:43:54;;;;;;;2.10;1.90;;;23.20;69.10;;;;;;5096734;28;20450;-85
2023/06/06 10:46:21;;;;;;;2.00;1.90;;;23.20;69.10;;;;;;5096626;28;20431;-85
2023/06/06 10:48:56;;;;;;;1.70;1.60;;;23.20;69.10;;;;;;5096364;28;20437;-87
2023/06/06 10:51:31;;;;;;;2.17;1.97;;;23.30;69.20;;;;;;5096632;28;20442;-85
2023/06/06 10:54:16;;;;;;;1.83;1.73;;;23.30;69.20;;;;;;5096533;28;20433;-86
2023/06/06 10:56:51;;;;;;;1.93;1.83;;;23.20;69.10;;;;;;5095220;28;20514;-85
2023/06/06 10:59:21;;;;;;;1.83;1.73;;;23.20;69.10;;;;;;5096345;28;20435;-85
2023/06/06 11:01:48;;;;;;;2.60;1.50;;;23.30;69.20;;;;;;5096369;28;20443;-87
2023/06/06 11:04:18;;;;;;;2.00;1.73;;;23.30;69.30;;;;;;5096251;28;20436;-86
2023/06/06 11:06:46;;;;;;;1.67;1.57;;;23.30;69.30;;;;;;5096150;28;20451;-85
2023/06/06 11:09:23;;;;;;;1.90;1.50;;;23.30;69.30;;;;;;5096065;28;20439;-85
2023/06/06 11:12:28;;;;;;;1.60;1.50;;;23.30;69.30;;;;;;5095966;28;20857;-85
2023/06/06 11:14:59;;;;;;;2.00;1.80;;;23.30;69.20;;;;;;5095950;28;20444;-85
2023/06/06 11:17:29;;;;;;;1.90;1.60;;;23.30;69.10;;;;;;5095989;28;20489;-87
2023/06/06 11:19:57;;;;;;;1.87;1.40;;;23.30;69.10;;;;;;5096039;28;20794;-87
2023/06/06 11:22:25;;;;;;;1.77;1.67;;;23.30;69.10;;;;;;5095679;28;20479;-85
2023/06/06 11:24:56;;;;;;;1.90;1.50;;;23.30;69.30;;;;;;5096103;28;20441;-86
2023/06/06 11:27:24;;;;;;;1.97;1.57;;;23.30;69.30;;;;;;5095847;28;20441;-85
2023/06/06 11:29:54;;;;;;;1.60;1.47;;;23.30;69.30;;;;;;5095945;28;20466;-86
2023/06/06 11:32:23;;;;;;;1.67;1.57;;;23.30;69.20;;;;;;5095972;28;20538;-87
2023/06/06 11:34:50;;;;;;;1.80;1.70;;;23.30;69.20;;;;;;5095760;28;20437;-85
2023/06/06 11:37:17;;;;;;;1.50;1.40;;;23.30;69.20;;;;;;5094793;28;20492;-85
2023/06/06 11:39:44;;;;;;;2.00;1.90;;;23.40;69.30;;;;;;5095407;28;20455;-85
2023/06/06 11:42:17;;;;;;;1.67;1.57;;;23.40;69.30;;;;;;5095431;28;20438;-86
2023/06/06 11:44:45;;;;;;;1.77;1.67;;;23.60;69.80;;;;;;5095483;28;20471;-85
2023/06/06 11:47:12;;;;;;;1.70;1.50;;;23.40;69.40;;;;;;5095600;28;20576;-86
2023/06/06 11:49:43;;;;;;;2.03;1.93;;;23.40;69.30;;;;;;5095298;28;20809;-88
2023/06/06 11:52:11;;;;;;;1.87;1.73;;;23.40;69.40;;;;;;5095051;28;20487;-85
2023/06/06 11:54:38;;;;;;;1.70;1.60;;;23.40;69.40;;;;;;5095143;28;20493;-85
2023/06/06 11:57:08;;;;;;;1.73;1.63;;;23.40;69.40;;;;;;5095279;28;20557;-87
2023/06/06 11:59:35;;;;;;;1.80;1.70;;;23.50;69.50;;;;;;5094976;28;20443;-87
2023/06/06 12:02:04;;;;;;;1.87;1.77;;;23.40;69.50;;;;;;5095287;28;20445;-86
2023/06/06 12:04:31;;;;;;;1.93;1.83;;;23.40;69.40;;;;;;5095119;28;20938;-85
2023/06/06 12:07:03;;;;;;;1.83;1.70;;;23.50;69.50;;;;;;5095016;28;20448;-87
2023/06/06 12:09:30;;;;;;;2.10;2.00;;;23.40;69.40;;;;;;5094969;28;20809;-88
2023/06/06 12:12:00;;;;;;;1.93;1.77;;;23.50;69.50;;;;;;5094901;28;20451;-86
2023/06/06 12:14:28;;;;;;;1.67;1.50;;;23.50;69.50;;;;;;5094759;28;20436;-85
2023/06/06 12:17:03;;;;;;;1.60;1.50;;;23.60;69.50;;;;;;5094649;28;20485;-86
2023/06/06 12:19:31;;;;;;;1.40;1.30;;;23.50;69.50;;;;;;5094682;28;20444;-88
2023/06/06 12:21:57;;;;;;;2.20;2.00;;;23.50;69.60;;;;;;5094438;28;20469;-85
2023/06/06 12:24:26;;;;;;;1.37;1.27;;;23.50;69.50;;;;;;5094851;28;20915;-85
2023/06/06 12:26:56;;;;;;;2.80;1.80;;;23.50;69.50;;;;;;5094395;28;20856;-85
2023/06/06 12:29:23;;;;;;;1.60;1.50;;;23.50;69.40;;;;;;5094462;28;20441;-86
2023/06/06 12:31:51;;;;;;;1.80;1.70;;;23.50;69.50;;;;;;5094516;28;20940;-85
2023/06/06 12:34:43;;;;;;;1.50;1.40;;;23.50;69.50;;;;;;5094425;28;20432;-86
2023/06/06 12:37:10;;;;;;;1.57;1.40;;;23.60;69.70;;;;;;5094528;28;20525;-86
2023/06/06 12:39:39;;;;;;;1.63;1.40;;;23.60;69.60;;;;;;5094349;28;20437;-86
2023/06/06 12:42:13;;;;;;;1.90;1.70;;;23.60;69.50;;;;;;5094320;28;20474;-88
2023/06/06 12:44:41;;;;;;;1.40;1.30;;;23.60;69.50;;;;;;5094489;28;20913;-86
2023/06/06 12:47:08;;;;;;;1.50;1.40;;;23.60;69.60;;;;;;5094165;28;20441;-85
2023/06/06 12:49:37;;;;;;;1.40;1.20;;;23.60;69.50;;;;;;5093792;28;20474;-88
2023/06/06 12:52:04;;;;;;;1.80;1.70;;;23.60;69.40;;;;;;5095169;28;20465;-87
2023/06/06 12:54:34;;;;;;;2.20;2.00;;;23.60;69.20;;;;;;5096407;28;20813;-87
2023/06/06 12:57:00;;;;;;;1.60;1.50;;;23.50;69.00;;;;;;5093764;28;20515;-86
2023/06/06 12:59:27;;;;;;;2.03;1.83;;;23.50;69.00;;;;;;5093923;28;20812;-85
2023/06/06 13:01:54;;;;;;;1.50;1.30;;;23.50;69.50;;;;;;5093648;28;20441;-85
2023/06/06 13:04:21;;;;;;;2.37;1.33;;;23.50;69.70;;;;;;5093461;28;20445;-86
2023/06/06 13:06:51;;;;;;;1.60;1.50;;;23.50;69.60;;;;;;5094564;28;20925;-88
2023/06/06 13:09:18;;;;;;;1.80;1.70;;;23.50;69.70;;;;;;5094115;28;20440;-86
2023/06/06 13:11:46;;;;;;;1.60;1.50;;;23.50;69.60;;;;;;5093435;28;20472;-85
2023/06/06 13:14:13;;;;;;;1.70;1.40;;;23.50;69.80;;;;;;5093609;28;20431;-88
2023/06/06 13:16:41;;;;;;;2.03;1.43;;;23.50;69.80;;;;;;5093408;28;20492;-86
2023/06/06 13:19:07;;;;;;;2.90;1.60;;;23.50;69.70;;;;;;5093578;28;20452;-87
2023/06/06 13:21:34;;;;;;;3.37;1.70;;;23.50;69.70;;;;;;5093624;28;20574;-87
2023/06/06 13:24:02;;;;;;;2.37;2.17;;;23.50;69.90;;;;;;5094063;28;20774;-85
2023/06/06 13:26:29;;;;;;;2.03;1.83;;;23.50;69.00;;;;;;5093648;28;20451;-83
2023/06/06 13:28:56;;;;;;;1.80;1.70;;;23.50;68.80;;;;;;5093958;28;20440;-82
2023/06/06 13:31:23;;;;;;;1.73;1.63;;;23.40;68.70;;;;;;5093266;28;20444;-89
2023/06/06 13:33:50;;;;;;;2.10;1.87;;;23.40;68.60;;;;;;5093620;28;20451;-83
2023/06/06 13:36:17;;;;;;;2.53;1.80;;;23.40;68.40;;;;;;5093362;28;20471;-83
2023/06/06 13:38:45;;;;;;;1.80;1.70;;;23.40;68.40;;;;;;5093224;28;20440;-83
2023/06/06 13:41:13;;;;;;;1.83;1.73;;;23.50;68.60;;;;;;5092968;28;20497;-85
2023/06/06 13:43:40;;;;;;;1.73;1.60;;;23.40;68.60;;;;;;5092699;28;20447;-85
2023/06/06 13:46:07;;;;;;;3.77;1.80;;;23.40;68.70;;;;;;5093347;28;20435;-88
2023/06/06 13:48:34;;;;;;;4.70;1.93;;;23.30;69.00;;;;;;5092822;28;20458;-86
2023/06/06 13:51:02;;;;;;;2.00;1.57;;;23.30;69.40;;;;;;5093036;28;20528;-86
2023/06/06 13:53:29;;;;;;;2.47;1.87;;;23.40;69.50;;;;;;5092940;28;20468;-86
2023/06/06 13:55:56;;;;;;;2.03;1.87;;;23.20;69.30;;;;;;5074948;28;20443;-86
2023/06/06 13:58:24;;;;;;;1.60;1.50;;;23.40;69.40;;;;;;5093253;28;20451;-86
2023/06/06 14:00:52;;;;;;;2.33;1.63;;;23.40;69.50;;;;;;5094979;28;20443;-89
2023/06/06 14:03:19;;;;;;;2.80;1.80;;;23.40;69.50;;;;;;5097588;28;20445;-85
2023/06/06 14:05:46;;;;;;;1.60;1.50;;;23.40;69.30;;;;;;5097033;28;20501;-86
2023/06/06 14:08:12;;;;;;;1.70;1.57;;;23.50;69.50;;;;;;5096877;28;20442;-86
2023/06/06 14:10:40;;;;;;;1.70;1.60;;;23.50;69.50;;;;;;5097202;28;20552;-86